createdAt,value
2022-12-13T00:01:45.353Z,90.47
2022-12-13T00:04:12.254Z,90.82
2022-12-13T00:06:38.913Z,90.67
2022-12-13T00:09:05.590Z,90.72
2022-12-13T00:11:32.347Z,90.64
2022-12-13T00:13:59.473Z,90.71
2022-12-13T00:16:26.392Z,90.58
2022-12-13T00:18:55.401Z,90.60
2022-12-13T00:21:23.445Z,90.87
2022-12-13T00:23:50.564Z,90.87
2022-12-13T00:26:19.083Z,90.79
2022-12-13T00:28:48.121Z,90.81
2022-12-13T00:31:53.605Z,91.12
2022-12-13T00:34:02.172Z,90.82
2022-12-13T00:36:28.865Z,90.84
2022-12-13T00:39:01.709Z,90.68
2022-12-13T00:41:33.101Z,90.92
2022-12-13T00:43:59.895Z,90.49
2022-12-13T00:46:26.857Z,90.78
2022-12-13T00:48:55.234Z,90.52
2022-12-13T00:51:22.088Z,90.60
2022-12-13T00:53:48.640Z,90.69
2022-12-13T00:56:21.396Z,90.57
2022-12-13T00:58:52.187Z,90.67
2022-12-13T01:01:21.489Z,90.41
2022-12-13T01:03:49.355Z,90.61
2022-12-13T01:06:17.756Z,90.67
2022-12-13T01:08:44.753Z,90.70
2022-12-13T01:11:11.444Z,90.65
2022-12-13T01:13:38.312Z,90.48
2022-12-13T01:16:05.546Z,90.83
2022-12-13T01:18:32.244Z,90.59
2022-12-13T01:21:11.308Z,90.91
2022-12-13T01:23:38.024Z,90.77
2022-12-13T01:26:05.924Z,90.67
2022-12-13T01:28:32.670Z,90.87
2022-12-13T01:31:00.988Z,90.83
2022-12-13T01:33:27.970Z,91.07
2022-12-13T01:35:54.693Z,90.90
2022-12-13T01:38:21.574Z,90.97
2022-12-13T01:40:58.799Z,90.83
2022-12-13T01:43:29.257Z,90.78
2022-12-13T01:45:55.922Z,90.73
2022-12-13T01:48:28.158Z,90.96
2022-12-13T01:50:57.115Z,90.79
2022-12-13T01:53:26.729Z,91.00
2022-12-13T01:55:54.996Z,91.21
2022-12-13T01:58:21.627Z,90.94
2022-12-13T02:00:48.481Z,91.04
2022-12-13T02:03:21.204Z,91.26
2022-12-13T02:05:56.476Z,91.39
2022-12-13T02:08:27.506Z,91.37
2022-12-13T03:57:32.996Z,91.14
2022-12-13T03:59:59.737Z,91.12
2022-12-13T04:02:31.007Z,91.30
2022-12-13T04:04:58.353Z,91.24
2022-12-13T04:07:27.693Z,91.15
2022-12-13T04:10:01.131Z,91.15
2022-12-13T04:12:48.591Z,91.18
2022-12-13T04:15:15.762Z,91.25
2022-12-13T04:17:42.732Z,91.51
2022-12-13T04:20:10.057Z,91.29
2022-12-13T04:22:36.792Z,91.11
2022-12-13T04:25:04.501Z,91.07
2022-12-13T04:27:31.184Z,91.17
2022-12-13T04:29:57.832Z,91.09
2022-12-13T04:32:26.622Z,91.25
2022-12-13T04:35:00.749Z,91.11
2022-12-13T04:37:28.222Z,91.31
2022-12-13T04:40:00.812Z,91.49
2022-12-13T04:42:28.447Z,91.64
2022-12-13T04:44:55.130Z,91.61
2022-12-13T04:47:21.794Z,91.75
2022-12-13T04:49:48.585Z,91.78
2022-12-13T04:52:22.458Z,91.79
2022-12-13T04:54:55.640Z,91.67
2022-12-13T04:57:23.029Z,91.63
2022-12-13T04:59:49.695Z,91.82
2022-12-13T05:02:23.466Z,91.98
2022-12-13T05:04:54.338Z,91.83
2022-12-13T05:07:23.023Z,91.81
2022-12-13T05:09:49.711Z,91.93
2022-12-13T05:12:22.521Z,92.21
2022-12-13T05:14:49.673Z,92.18
2022-12-13T05:17:16.740Z,91.89
2022-12-13T05:19:43.547Z,92.05
2022-12-13T05:22:19.850Z,92.10
2022-12-13T05:24:47.707Z,92.05
2022-12-13T05:27:25.701Z,92.15
2022-12-13T05:30:05.191Z,92.24
2022-12-13T05:32:42.745Z,92.02
2022-12-13T05:35:12.628Z,92.25
2022-12-13T05:37:39.426Z,92.24
2022-12-13T05:40:06.985Z,92.45
2022-12-13T05:42:33.695Z,92.36
2022-12-13T05:45:00.360Z,92.55
2022-12-13T05:47:27.020Z,92.37
2022-12-13T05:49:53.744Z,92.45
2022-12-13T05:52:21.542Z,92.35
2022-12-13T05:54:57.348Z,92.30
2022-12-13T05:57:28.103Z,92.13
2022-12-13T05:59:54.864Z,92.21
2022-12-13T06:02:22.184Z,91.82
2022-12-13T06:04:49.043Z,91.98
2022-12-13T06:07:15.668Z,92.01
2022-12-13T06:09:42.752Z,92.08
2022-12-13T06:12:30.880Z,91.92
2022-12-13T06:15:00.936Z,91.74
2022-12-13T06:17:32.592Z,91.87
2022-12-13T06:19:59.399Z,91.95
2022-12-13T06:22:26.408Z,91.84
2022-12-13T06:24:53.408Z,91.48
2022-12-13T06:27:21.193Z,91.70
2022-12-13T06:29:47.860Z,91.84
2022-12-13T06:32:14.553Z,91.73
2022-12-13T06:34:41.206Z,91.72
2022-12-13T06:37:09.124Z,91.83
2022-12-13T06:39:36.384Z,91.70
2022-12-13T06:42:05.994Z,91.77
2022-12-13T06:44:32.820Z,91.67
2022-12-13T06:47:10.782Z,91.56
2022-12-13T06:49:39.423Z,91.74
2022-12-13T06:52:06.317Z,91.56
2022-12-13T06:54:33.253Z,91.50
2022-12-13T06:56:59.971Z,91.62
2022-12-13T06:59:26.592Z,91.83
2022-12-13T07:01:53.442Z,91.89
2022-12-13T07:04:29.857Z,91.80
2022-12-13T07:07:01.621Z,92.02
2022-12-13T07:09:32.172Z,91.97
2022-12-13T07:11:59.064Z,91.75
2022-12-13T07:14:25.716Z,91.76
2022-12-13T07:16:55.462Z,91.84
2022-12-13T07:19:26.191Z,91.88
2022-12-13T07:22:01.705Z,91.98
2022-12-13T07:24:28.369Z,91.90
2022-12-13T07:26:55.036Z,92.06
2022-12-13T07:29:22.242Z,91.89
2022-12-13T07:31:49.984Z,91.89
2022-12-13T07:34:16.900Z,91.93
2022-12-13T07:36:43.491Z,92.17
2022-12-13T07:39:10.572Z,91.94
2022-12-13T07:41:37.421Z,92.18
2022-12-13T07:44:04.940Z,91.96
2022-12-13T07:46:33.400Z,91.99
2022-12-13T07:49:04.037Z,91.98
2022-12-13T07:51:33.790Z,92.06
2022-12-13T07:54:00.816Z,91.98
2022-12-13T07:56:33.769Z,91.86
2022-12-13T07:59:00.438Z,91.50
2022-12-13T08:01:27.178Z,91.42
2022-12-13T08:03:54.498Z,91.24
2022-12-13T08:06:21.160Z,91.29
2022-12-13T08:08:51.037Z,91.02
2022-12-13T08:13:03.805Z,90.90
2022-12-13T08:15:30.552Z,90.56
2022-12-13T08:17:57.414Z,90.31
2022-12-13T08:20:24.098Z,90.40
2022-12-13T08:23:01.946Z,90.31
2022-12-13T08:25:29.795Z,90.09
2022-12-13T08:27:56.455Z,90.01
2022-12-13T08:30:28.655Z,90.25
2022-12-13T08:32:55.982Z,90.03
2022-12-13T08:35:22.605Z,90.05
2022-12-13T08:37:49.330Z,89.89
2022-12-13T08:40:16.336Z,90.12
2022-12-13T08:42:44.044Z,90.13
2022-12-13T08:45:10.979Z,89.85
2022-12-13T08:47:41.716Z,89.72
2022-12-13T08:50:08.992Z,89.84
2022-12-13T08:52:40.321Z,89.80
2022-12-13T08:55:10.305Z,89.72
2022-12-13T08:57:37.665Z,89.82
2022-12-13T09:00:08.307Z,89.96
2022-12-13T09:02:38.027Z,89.87
2022-12-13T09:05:07.313Z,89.85
2022-12-13T09:07:35.870Z,89.46
2022-12-13T09:10:07.303Z,89.48
2022-12-13T09:12:50.288Z,89.47
2022-12-13T09:15:21.826Z,89.27
2022-12-13T09:17:52.507Z,89.34
2022-12-13T09:20:28.569Z,89.40
2022-12-13T09:23:01.597Z,89.36
2022-12-13T09:25:36.952Z,89.15
2022-12-13T09:28:08.425Z,88.81
2022-12-13T09:30:38.320Z,88.88
2022-12-13T09:33:28.510Z,88.70
2022-12-13T09:35:52.226Z,88.64
2022-12-13T09:38:19.256Z,88.43
2022-12-13T09:40:46.065Z,88.27
2022-12-13T09:43:21.921Z,88.16
2022-12-13T09:45:50.568Z,88.02
2022-12-13T09:48:22.711Z,88.20
2022-12-13T09:50:57.972Z,88.10
2022-12-13T09:53:37.369Z,88.06
2022-12-13T09:56:10.760Z,88.04
2022-12-13T09:58:38.136Z,87.44
2022-12-13T10:01:04.825Z,87.12
2022-12-13T10:03:31.483Z,86.48
2022-12-13T10:06:14.220Z,86.01
2022-12-13T10:08:57.262Z,85.54
2022-12-13T10:11:32.200Z,84.93
2022-12-13T10:14:05.770Z,84.61
2022-12-13T10:16:38.602Z,84.47
2022-12-13T10:19:30.237Z,84.58
2022-12-13T10:22:01.278Z,84.72
2022-12-13T10:25:05.162Z,84.60
2022-12-13T10:27:40.292Z,83.93
2022-12-13T10:30:28.359Z,83.49
2022-12-13T10:32:59.454Z,83.35
2022-12-13T10:35:27.891Z,83.65
2022-12-13T10:37:55.495Z,83.97
2022-12-13T10:40:33.906Z,84.08
2022-12-13T10:43:17.416Z,84.04
2022-12-13T10:45:56.866Z,83.83
2022-12-13T10:48:38.844Z,83.62
2022-12-13T10:51:07.772Z,83.64
2022-12-13T10:53:55.556Z,83.53
2022-12-13T10:56:23.916Z,83.49
2022-12-13T10:59:17.299Z,83.23
2022-12-13T11:01:44.498Z,83.15
2022-12-13T11:04:29.228Z,83.44
2022-12-13T11:06:57.190Z,83.73
2022-12-13T11:09:26.957Z,83.61
2022-12-13T11:11:58.310Z,83.17
2022-12-13T11:14:37.690Z,83.20
2022-12-13T11:17:10.523Z,82.86
2022-12-13T11:19:44.490Z,82.85
2022-12-13T11:22:29.389Z,83.17
2022-12-13T11:25:00.375Z,83.19
2022-12-13T11:27:36.104Z,83.46
2022-12-13T11:30:13.192Z,83.44
2022-12-13T11:33:09.117Z,83.35
2022-12-13T11:35:47.796Z,83.44
2022-12-13T11:38:20.533Z,83.67
2022-12-13T11:40:49.797Z,83.58
2022-12-13T11:43:50.325Z,83.81
2022-12-13T11:46:19.861Z,83.50
2022-12-13T11:48:50.977Z,83.48
2022-12-13T11:51:22.265Z,83.28
2022-12-13T11:54:13.144Z,83.16
2022-12-13T11:56:54.855Z,83.09
2022-12-13T11:59:44.735Z,83.06
2022-12-13T12:02:27.515Z,83.01
2022-12-13T12:05:00.050Z,82.98
2022-12-13T12:07:33.868Z,83.25
2022-12-13T12:10:06.738Z,82.91
2022-12-13T12:12:34.896Z,82.64
2022-12-13T12:15:26.719Z,83.03
2022-12-13T12:17:55.461Z,83.27
2022-12-13T12:20:48.405Z,83.41
2022-12-13T12:23:23.743Z,83.19
2022-12-13T12:25:52.614Z,83.15
2022-12-13T12:28:31.141Z,83.22
2022-12-13T12:31:08.167Z,83.13
2022-12-13T12:33:50.737Z,83.26
2022-12-13T12:36:20.483Z,83.33
2022-12-13T12:38:52.945Z,83.85
2022-12-13T12:41:22.610Z,83.93
2022-12-13T12:44:18.769Z,83.43
2022-12-13T12:47:31.567Z,83.07
2022-12-13T12:49:56.299Z,82.62
2022-12-13T12:52:40.817Z,82.99
2022-12-13T12:55:19.329Z,83.61
2022-12-13T12:58:03.730Z,83.30
2022-12-13T13:00:43.872Z,83.30
2022-12-13T13:03:22.829Z,83.78
2022-12-13T19:28:37.379Z,76.80
2022-12-13T19:31:10.023Z,76.85
2022-12-13T19:33:37.157Z,76.36
2022-12-13T19:36:04.510Z,76.51
2022-12-13T19:38:31.581Z,76.23
2022-12-13T19:40:58.443Z,76.12
2022-12-13T19:43:25.717Z,76.39
2022-12-13T19:45:53.181Z,76.31
2022-12-13T19:48:19.987Z,76.76
2022-12-13T19:50:47.400Z,76.53
2022-12-13T19:53:14.342Z,76.79
2022-12-13T19:55:48.340Z,76.92
2022-12-13T19:58:15.596Z,76.92
2022-12-13T20:00:42.366Z,77.12
2022-12-13T20:03:09.187Z,77.24
2022-12-13T20:05:36.186Z,77.17
2022-12-13T20:08:02.958Z,77.29
2022-12-13T20:10:29.926Z,77.37
2022-12-13T20:12:57.359Z,77.60
2022-12-13T20:15:24.370Z,77.61
2022-12-13T20:17:51.799Z,77.93
2022-12-13T20:20:22.431Z,78.07
2022-12-13T20:22:49.421Z,78.30
2022-12-13T20:25:16.177Z,78.10
2022-12-13T20:27:44.237Z,77.96
2022-12-13T20:30:11.470Z,78.26
2022-12-13T20:32:38.459Z,78.50
2022-12-13T20:35:05.761Z,78.48
2022-12-13T20:37:32.610Z,78.65
2022-12-13T20:39:59.860Z,78.68
2022-12-13T20:42:26.895Z,78.74
2022-12-13T20:44:53.800Z,78.58
2022-12-13T20:47:20.461Z,78.81
2022-12-13T20:49:48.489Z,78.96
2022-12-13T20:52:17.007Z,79.06
2022-12-13T20:54:43.689Z,79.02
2022-12-13T20:57:11.273Z,79.09
2022-12-13T20:59:37.996Z,78.94
2022-12-13T21:02:05.129Z,78.73
2022-12-13T21:04:31.832Z,79.00
2022-12-13T21:06:58.635Z,78.85
2022-12-13T21:09:25.283Z,79.16
2022-12-13T21:11:51.996Z,79.09
2022-12-13T21:14:25.955Z,79.22
2022-12-13T21:16:54.178Z,79.10
2022-12-13T21:19:39.465Z,79.25
2022-12-13T21:22:06.793Z,79.22
2022-12-13T21:24:33.496Z,79.29
2022-12-13T21:27:00.197Z,79.44
2022-12-13T21:29:26.892Z,79.53
2022-12-13T21:31:54.685Z,79.41
2022-12-13T21:34:22.298Z,79.40
2022-12-13T21:36:50.095Z,79.78
2022-12-13T21:39:24.724Z,79.68
2022-12-13T21:41:52.096Z,80.06
2022-12-13T21:44:18.906Z,79.88
2022-12-13T21:49:32.308Z,80.59
2022-12-13T21:51:58.972Z,80.74
2022-12-13T21:54:25.641Z,80.93
2022-12-13T21:57:10.800Z,80.81
2022-12-13T21:59:37.499Z,80.80
2022-12-13T22:02:12.235Z,80.95
2022-12-13T22:04:45.828Z,81.30
2022-12-13T22:07:34.015Z,81.42
2022-12-13T22:10:01.192Z,81.42
2022-12-13T22:12:36.142Z,81.39
2022-12-13T22:15:04.630Z,81.36
2022-12-13T22:17:35.776Z,81.32
2022-12-13T22:20:08.150Z,81.34
2022-12-13T22:22:34.906Z,81.59
2022-12-13T22:25:01.652Z,81.38
2022-12-13T22:27:28.312Z,81.19
2022-12-13T22:29:59.020Z,81.18
2022-12-13T22:32:27.680Z,81.08
2022-12-13T22:34:54.471Z,81.12
2022-12-13T22:37:21.299Z,80.89
2022-12-13T22:39:47.910Z,80.85
2022-12-13T22:42:14.646Z,81.09
2022-12-13T22:44:41.364Z,81.10
2022-12-13T22:47:08.055Z,81.00
2022-12-13T22:49:34.783Z,81.03
2022-12-13T22:52:01.536Z,80.90
2022-12-13T22:54:28.196Z,80.89
2022-12-13T22:56:55.142Z,80.97
2022-12-13T22:59:21.740Z,81.34
2022-12-13T23:01:50.257Z,81.35
2022-12-13T23:04:16.915Z,81.34
2022-12-13T23:06:43.586Z,81.37
2022-12-13T23:09:11.829Z,81.49
2022-12-13T23:11:57.203Z,81.30
2022-12-13T23:14:28.840Z,81.48
2022-12-13T23:16:55.821Z,81.11
2022-12-13T23:22:09.177Z,81.35
2022-12-13T23:24:35.812Z,81.35
2022-12-13T23:27:02.804Z,81.21
2022-12-13T23:29:29.493Z,81.49
2022-12-13T23:31:56.191Z,81.58
2022-12-13T23:34:22.838Z,81.53
2022-12-13T23:36:49.648Z,81.45
2022-12-13T23:39:16.269Z,81.60
2022-12-13T23:41:43.002Z,81.80
2022-12-13T23:44:10.072Z,81.97
2022-12-13T23:46:36.886Z,82.06
2022-12-13T23:49:04.715Z,81.95
2022-12-13T23:51:31.859Z,82.10
2022-12-13T23:53:58.620Z,82.32
2022-12-13T23:56:25.327Z,82.31
2022-12-13T23:58:52.095Z,82.46
